Royal Princess — ZCEI3 — position and weather

sailwx.info

Track history (hours):
 
Tides and Currents Weather Stations Pressure Air Temp Water Temp Dewpoint Dewpoint Depression Visibility Wind Speed Wind Dir Waves Ship Positions

Royal Princess

Last reported at 2018-May-26 03:11 UTC. Time now 2018-May-26 13:50 UTC.
Position N 49°29' W 002°52'.

Length 330 m; draft 8.5 m.

Type: Passenger vessel. MMSI: 310661000.

Date/timePositionNaut miles runAvg speedWind from/ knotsBaromVisibWave heightAir tempDewpointWater temp
2018-May-26 03:11N 49°29' W 002°52'414.5
2018-May-26 02:56N 49°33' W 002°52'614.6
2018-May-26 02:31N 49°39' W 002°53'714.9
2018-May-26 02:01N 49°46' W 002°55'815.1
2018-May-26 01:31N 49°54' W 002°57'612.1
2018-May-26 00:59N 49°58' W 002°51'714.0
2018-May-26 00:30N 50°00' W 002°41'814.3
2018-May-25 23:57N 50°02' W 002°29'714.7
2018-May-25 23:30N 50°05' W 002°20'815.1
2018-May-25 23:00N 50°09' W 002°09'815.1
2018-May-25 22:30N 50°12' W 001°59'715.0
2018-May-25 22:00N 50°16' W 001°49'714.7
2018-May-25 21:30N 50°20' W 001°39'714.6
2018-May-25 21:00N 50°23' W 001°29'714.8
2018-May-25 20:30N 50°27' W 001°19'715.0
2018-May-25 20:01N 50°31' W 001°09'815.8
2018-May-25 19:31N 50°36' W 000°59'713.4
2018-May-25 19:00N 50°43' W 000°59'612.6
2018-May-25 18:30N 50°45' W 001°08'714.2
2018-May-25 18:00N 50°47' W 001°19'4 8.2
2018-May-25 17:31N 50°51' W 001°21'3 5.9
2018-May-25 17:00N 50°53' W 001°24'0 0.0
2018-May-25 16:30N 50°53' W 001°24'0 0.0
2018-May-25 16:00N 50°53' W 001°24'0 0.0
2018-May-25 15:30N 50°53' W 001°24'0 0.0
2018-May-25 15:00N 50°53' W 001°24'0 0.0
2018-May-25 14:30N 50°53' W 001°24'0 0.0
2018-May-25 14:00N 50°53' W 001°24'0 0.0
2018-May-25 13:30N 50°53' W 001°24'0 0.0
2018-May-25 13:00N 50°53' W 001°24'0 0.0
2018-May-25 12:30N 50°53' W 001°24'0 0.0
2018-May-25 12:00N 50°53' W 001°24'0 0.0
2018-May-25 11:30N 50°53' W 001°24'0 0.0
2018-May-25 11:00N 50°53' W 001°24'0 0.0
2018-May-25 10:30N 50°53' W 001°24'0 0.0
2018-May-25 09:57N 50°53' W 001°24'0 0.0
2018-May-25 09:30N 50°53' W 001°24'0 0.0
2018-May-25 09:00N 50°53' W 001°24'0 0.0
2018-May-25 08:29N 50°53' W 001°24'0 0.0
2018-May-25 07:59N 50°53' W 001°24'0 0.0
2018-May-25 07:29N 50°53' W 001°24'0 0.0
2018-May-25 06:59N 50°53' W 001°24'0 0.0
2018-May-25 06:29N 50°53' W 001°24'0 0.0
2018-May-25 05:59N 50°53' W 001°24'0 0.0
2018-May-25 05:29N 50°53' W 001°24'0 0.0
2018-May-25 04:59N 50°53' W 001°24'0 0.0
2018-May-25 04:29N 50°53' W 001°24'0 0.0
2018-May-25 03:59N 50°53' W 001°24'0 0.4
2018-May-25 03:30N 50°53' W 001°24'4 7.3
2018-May-25 03:00N 50°51' W 001°20'4 8.6
2018-May-25 02:30N 50°47' W 001°19'713.7
2018-May-25 02:00N 50°45' W 001°08'714.4
2018-May-25 01:31N 50°42' W 000°58'5 9.1
2018-May-25 01:01N 50°38' W 000°58'613.0
2018-May-25 00:31N 50°31' W 000°57'713.4
2018-May-25 00:00N 50°25' W 000°54'813.3
2018-May-24 23:25N 50°17' W 000°50'613.4
2018-May-24 23:00N 50°12' W 000°48'713.5
2018-May-24 22:31N 50°05' W 000°46'713.4
2018-May-24 22:01N 49°59' W 000°43'713.4
2018-May-24 21:31N 49°53' W 000°39'713.7
2018-May-24 21:01N 49°47' W 000°32'713.7
2018-May-24 20:31N 49°42' W 000°26'713.4
2018-May-24 20:00N 49°36' W 000°20'713.5
2018-May-24 19:30N 49°33' W 000°11'612.4
2018-May-24 19:00N 49°31' W 000°02'5 9.6
2018-May-24 18:30N 49°29' E 000°05'1 2.5
2018-May-24 18:00N 49°29' E 000°07'0 0.0
2018-May-24 17:30N 49°29' E 000°07'0 0.0
2018-May-24 17:00N 49°29' E 000°07'0 0.0
2018-May-24 16:30N 49°29' E 000°07'0 0.0
2018-May-24 16:00N 49°29' E 000°07'0 0.0
2018-May-24 15:30N 49°29' E 000°07'0 0.0
2018-May-24 14:59N 49°29' E 000°07'0 0.0
2018-May-24 14:29N 49°29' E 000°07'0 0.0
2018-May-24 13:59N 49°29' E 000°07'0 0.0
2018-May-24 13:29N 49°29' E 000°07'0 0.0
2018-May-24 08:59N 49°29' E 000°07'0 0.0
2018-May-24 08:29N 49°29' E 000°07'0 0.0
2018-May-24 07:58N 49°29' E 000°07'0 0.0
2018-May-24 07:30N 49°29' E 000°07'0 0.0
2018-May-24 06:59N 49°29' E 000°07'0 0.0
2018-May-24 06:29N 49°29' E 000°07'0 0.0
2018-May-24 05:58N 49°29' E 000°07'0 0.0
2018-May-24 05:28N 49°29' E 000°07'0 0.0
2018-May-24 04:58N 49°29' E 000°07'0 0.6
2018-May-24 04:30N 49°29' E 000°06'4 8.3
2018-May-24 04:01N 49°30' E 000°00'611.2
2018-May-24 03:30N 49°32' W 000°08'510.2
2018-May-24 03:00N 49°34' W 000°15'611.9
2018-May-24 02:30N 49°39' W 000°20'815.2
2018-May-24 02:00N 49°46' W 000°24'815.9
2018-May-24 01:30N 49°53' W 000°18'917.5
2018-May-24 01:00N 50°01' W 000°12'917.4
2018-May-24 00:30N 50°09' W 000°07'917.6
2018-May-24 00:00N 50°18' W 000°07'914.4
2018-May-23 23:22N 50°27' W 000°06'616.1
2018-May-23 23:00N 50°29' E 000°03'916.4
2018-May-23 22:28N 50°31' E 000°16'816.3
2018-May-23 21:59N 50°33' E 000°29'3616.2
2018-May-23 19:44N 50°53' E 001°16'415.6
2018-May-23 19:30N 50°56' E 001°20'815.9
2018-May-23 19:01N 51°02' E 001°29'816.1
2018-May-23 18:30N 51°08' E 001°38'816.4
2018-May-23 18:00N 51°14' E 001°46'917.1
2018-May-23 17:31N 51°21' E 001°52'917.7
2018-May-23 17:00N 51°28' E 002°00'917.7
2018-May-23 16:30N 51°36' E 002°08'1019.1
2018-May-23 16:00N 51°45' E 002°11'1019.2
2018-May-23 15:28N 51°56' E 002°13'1319.3
2018-May-23 14:47N 52°09' E 002°16'2219.0
2018-May-23 13:38N 52°30' E 002°21'218.5
2018-May-23 13:30N 52°33' E 002°22'918.2
2018-May-23 13:00N 52°42' E 002°24'917.6
2018-May-23 12:31N 52°50' E 002°26'917.2
2018-May-23 12:00N 52°59' E 002°28'816.1
2018-May-23 11:30N 53°06' E 002°22'816.8
2018-May-23 11:00N 53°12' E 002°13'17316.7
2018-May-23 00:39N 55°29' W 000°47'316.9
2018-May-23 00:30N 55°31' W 000°50'817.0
2018-May-23 00:00N 55°37' W 001°00'917.3
2018-May-22 23:31N 55°44' W 001°11'917.5
2018-May-22 23:00N 55°50' W 001°22'917.6
2018-May-22 22:30N 55°55' W 001°35'917.4
2018-May-22 22:01N 55°58' W 001°49'917.2
2018-May-22 21:30N 56°03' W 002°02'1116.9
2018-May-22 20:52N 56°06' W 002°21'616.6
2018-May-22 20:30N 56°07' W 002°32'816.2
2018-May-22 20:00N 56°06' W 002°46'815.6
2018-May-22 19:30N 56°04' W 002°59'611.2
2018-May-22 19:00N 56°03' W 003°09'713.7
2018-May-22 18:30N 56°01' W 003°21'1 1.7
2018-May-22 17:50N 56°00' W 003°23'0 0.0
2018-May-22 17:14N 56°00' W 003°23'0 0.0
2018-May-22 16:41N 56°00' W 003°23'0 0.1
2018-May-22 16:29N 56°00' W 003°23'0 0.0
2018-May-22 15:32N 56°00' W 003°23'0 0.8
2018-May-22 15:29N 56°00' W 003°23'0 0.0
2018-May-22 14:14N 56°00' W 003°23'0 0.2
2018-May-22 13:56N 56°00' W 003°23'0 0.1
2018-May-22 13:23N 56°00' W 003°23'0 0.0
2018-May-22 12:38N 56°00' W 003°23'0 0.0
2018-May-22 12:30N 56°00' W 003°23'0 0.0
2018-May-22 12:00N 56°00' W 003°23'0 0.1
2018-May-22 11:12N 56°00' W 003°22'0 0.1
2018-May-22 11:00N 56°00' W 003°22'0 0.1
2018-May-22 10:27N 56°00' W 003°23'0 0.2
2018-May-22 10:00N 56°00' W 003°23'0 0.1
2018-May-22 09:30N 56°00' W 003°23'0 0.0
2018-May-22 09:00N 56°00' W 003°23'0 0.0
2018-May-22 08:29N 56°00' W 003°23'0 0.1
2018-May-22 08:00N 56°00' W 003°23'0 0.0
2018-May-22 07:30N 56°00' W 003°23'0 0.0
2018-May-22 07:00N 56°00' W 003°23'0 0.1
2018-May-22 06:29N 56°00' W 003°23'0 0.3
2018-May-22 05:59N 56°00' W 003°23'2 3.7
2018-May-22 05:26N 56°01' W 003°19'511.2
2018-May-22 04:58N 56°03' W 003°10'613.3
2018-May-22 04:31N 56°04' W 002°60'510.6
2018-May-22 04:00N 56°06' W 002°50'713.2
2018-May-22 03:31N 56°08' W 002°39'714.4
2018-May-22 03:00N 56°11' W 002°28'816.5
2018-May-22 02:30N 56°18' W 002°20'917.1
2018-May-22 02:00N 56°25' W 002°12'3317.8
2018-May-22 00:08N 56°56' W 001°47'319.6
2018-May-22 00:00N 56°58' W 001°46'1019.4
2018-May-21 23:30N 57°08' W 001°43'1019.3
2018-May-21 23:00N 57°17' W 001°40'1019.2
2018-May-21 22:30N 57°27' W 001°37'919.4
2018-May-21 22:00N 57°36' W 001°39'56 2.5
2018-May-20 23:12N 58°23' W 002°38'412.6
2018-May-20 22:54N 58°27' W 002°41'512.6
2018-May-20 22:30N 58°31' W 002°45'612.8
2018-May-20 22:00N 58°37' W 002°51'612.9
2018-May-20 21:30N 58°41' W 003°00'611.8
2018-May-20 21:00N 58°43' W 003°11'713.4
2018-May-20 20:30N 58°43' W 003°24'912.4
2018-May-20 19:47N 58°43' W 003°41'412.8
2018-May-20 19:30N 58°43' W 003°48'19911.8
2018-May-20 02:42N 55°58' W 007°16'316.0
2018-May-20 02:31N 55°56' W 007°13'815.5
2018-May-20 02:00N 55°49' W 007°05'815.2
2018-May-20 01:31N 55°43' W 006°58'713.9
2018-May-20 01:00N 55°38' W 006°49'713.5
2018-May-20 00:30N 55°34' W 006°39'713.2
2018-May-20 00:00N 55°31' W 006°29'713.9
2018-May-19 23:31N 55°27' W 006°19'713.9
2018-May-19 23:01N 55°25' W 006°07'713.0
2018-May-19 22:27N 55°21' W 005°57'613.0
2018-May-19 22:00N 55°16' W 005°51'1713.8
2018-May-19 20:47N 55°17' W 005°22'515.7
2018-May-19 20:28N 55°20' W 005°14'2413.9
2018-May-19 18:45N 55°42' W 004°59'2 9.1
2018-May-19 18:30N 55°44' W 004°59'815.8
2018-May-19 18:00N 55°52' W 004°57'713.6
2018-May-19 17:30N 55°58' W 004°51'3 6.5
2018-May-19 17:00N 55°57' W 004°46'0 0.0
2018-May-19 16:29N 55°57' W 004°46'0 0.0
2018-May-19 15:59N 55°57' W 004°46'0 0.0
2018-May-19 15:29N 55°57' W 004°46'0 0.0
2018-May-19 14:59N 55°57' W 004°46'0 0.0
2018-May-19 14:29N 55°57' W 004°46'0 0.0
2018-May-19 13:59N 55°57' W 004°46'0 0.0
2018-May-19 13:29N 55°57' W 004°46'0 0.0
2018-May-19 12:59N 55°57' W 004°46'0 0.0
2018-May-19 12:29N 55°57' W 004°46'0 0.0
2018-May-19 11:59N 55°57' W 004°46'0 0.0
2018-May-19 11:29N 55°57' W 004°46'0 0.0
2018-May-19 10:59N 55°57' W 004°46'0 0.0
2018-May-19 10:29N 55°57' W 004°46'0 0.0
2018-May-19 09:59N 55°57' W 004°46'0 0.0
2018-May-19 09:29N 55°57' W 004°46'0 0.0
2018-May-19 08:59N 55°57' W 004°46'0 0.0
2018-May-19 08:29N 55°57' W 004°46'0 0.0
2018-May-19 07:59N 55°57' W 004°46'0 0.0
2018-May-19 07:29N 55°57' W 004°46'0 0.0
2018-May-19 06:59N 55°57' W 004°46'0 0.0
2018-May-19 06:29N 55°57' W 004°46'0 0.0
2018-May-19 05:59N 55°57' W 004°46'0 0.5
2018-May-19 05:30N 55°58' W 004°46'5 8.9
2018-May-19 04:56N 55°56' W 004°54'2013.9
2018-May-19 03:30N 55°36' W 004°59'613.1
2018-May-19 03:00N 55°30' W 004°59'612.4
2018-May-19 02:30N 55°24' W 005°02'713.2
2018-May-19 02:00N 55°19' W 005°11'713.3
2018-May-19 01:30N 55°15' W 005°19'713.4
2018-May-19 01:00N 55°10' W 005°28'612.4
2018-May-19 00:30N 55°06' W 005°36'4 8.4
2018-May-19 00:00N 55°02' W 005°36'5 9.6
2018-May-18 23:30N 54°58' W 005°31'5 9.8
2018-May-18 23:00N 54°56' W 005°23'4 8.1
2018-May-18 22:30N 54°52' W 005°20'611.4
2018-May-18 22:01N 54°49' W 005°29'510.8
2018-May-18 21:30N 54°45' W 005°35'510.5
2018-May-18 21:00N 54°43' W 005°43'5 9.8
2018-May-18 20:29N 54°40' W 005°50'3 6.8
2018-May-18 19:59N 54°37' W 005°54'0 0.2
2018-May-18 19:28N 54°37' W 005°54'0 0.0
2018-May-18 18:52N 54°37' W 005°54'0 0.0
2018-May-18 18:28N 54°37' W 005°54'0 0.0
2018-May-18 17:58N 54°37' W 005°54'0 0.0
2018-May-18 17:28N 54°37' W 005°54'0 0.0
2018-May-18 16:58N 54°37' W 005°54'0 0.0
2018-May-18 16:28N 54°37' W 005°54'0 0.0
2018-May-18 15:58N 54°37' W 005°54'0 0.0
2018-May-18 15:28N 54°37' W 005°54'0 0.0
2018-May-18 14:58N 54°37' W 005°54'0 0.0
2018-May-18 14:28N 54°37' W 005°54'0 0.0
2018-May-18 13:58N 54°37' W 005°54'0 0.0
2018-May-18 13:28N 54°37' W 005°54'0 0.0
2018-May-18 12:49N 54°37' W 005°54'0 0.0
2018-May-18 12:28N 54°37' W 005°54'0 0.0
2018-May-18 11:58N 54°37' W 005°54'0 0.0
2018-May-18 11:28N 54°37' W 005°54'0 0.0
2018-May-18 10:58N 54°37' W 005°54'0 0.0
2018-May-18 10:30N 54°37' W 005°54'0 0.0
2018-May-18 09:58N 54°37' W 005°54'0 0.0
2018-May-18 09:25N 54°37' W 005°54'0 0.7
2018-May-18 08:58N 54°37' W 005°54'1 1.6
2018-May-18 08:30N 54°38' W 005°53'4 7.7
2018-May-18 08:00N 54°41' W 005°49'3 6.4
2018-May-18 07:31N 54°42' W 005°44'510.5
2018-May-18 07:00N 54°45' W 005°36'612.7
2018-May-18 06:30N 54°47' W 005°25'612.6
2018-May-18 06:00N 54°42' W 005°17'612.8
2018-May-18 05:30N 54°37' W 005°11'713.3
2018-May-18 04:59N 54°31' W 005°04'612.9
2018-May-18 04:30N 54°26' W 004°59'612.6
2018-May-18 04:00N 54°20' W 005°02'713.2
2018-May-18 03:30N 54°14' W 005°07'713.4
2018-May-18 02:58N 54°08' W 005°13'613.1
2018-May-18 02:30N 54°02' W 005°17'713.6
2018-May-18 01:59N 53°55' W 005°17'713.5
2018-May-18 01:30N 53°48' W 005°16'1012.7
2018-May-18 00:41N 53°38' W 005°18'212.7
2018-May-18 00:30N 53°37' W 005°21'613.0
2018-May-18 00:00N 53°33' W 005°30'713.4
2018-May-17 23:29N 53°29' W 005°40'613.0
2018-May-17 23:00N 53°26' W 005°48'713.7
2018-May-17 22:30N 53°22' W 005°58'510.6
2018-May-17 22:00N 53°20' W 006°06'4 7.4
2018-May-17 21:30N 53°21' W 006°13'0 0.1
2018-May-17 20:53N 53°21' W 006°13'0 0.0
2018-May-17 19:48N 53°21' W 006°13'0 0.0
2018-May-17 15:43N 53°21' W 006°13'0 0.0
2018-May-17 15:10N 53°21' W 006°13'0 0.0
2018-May-17 14:57N 53°21' W 006°13'0 0.0
2018-May-17 10:42N 53°21' W 006°13'0 0.0
2018-May-17 10:15N 53°21' W 006°13'0 0.0
2018-May-17 09:06N 53°21' W 006°13'0 0.0
2018-May-17 07:53N 53°21' W 006°13'0 0.0
2018-May-17 07:28N 53°21' W 006°13'0 0.0
2018-May-17 02:34N 53°21' W 006°13'0 0.0
2018-May-17 00:00N 53°21' W 006°13'0 0.0
2018-May-16 22:48N 53°21' W 006°13'0 0.0
2018-May-16 21:35N 53°21' W 006°13'0 0.0
2018-May-16 20:34N 53°21' W 006°13'0 0.0
2018-May-16 20:08N 53°21' W 006°13'0 0.0
2018-May-16 20:00N 53°21' W 006°13'0 0.0
2018-May-16 18:34N 53°21' W 006°13'0 0.0
2018-May-16 17:38N 53°21' W 006°13'0 0.0
2018-May-16 17:27N 53°21' W 006°13'0 0.0
2018-May-16 16:51N 53°21' W 006°13'0 0.0
2018-May-16 16:28N 53°21' W 006°13'0 0.0
2018-May-16 15:45N 53°21' W 006°13'0 0.0
2018-May-16 15:25N 53°21' W 006°13'0 0.0
2018-May-16 14:06N 53°21' W 006°13'0 0.0
2018-May-16 13:46N 53°21' W 006°13'0 0.0
2018-May-16 12:30N 53°21' W 006°13'0 0.0
2018-May-16 11:26N 53°21' W 006°13'0 0.0
2018-May-16 11:00N 53°21' W 006°13'0 0.0
2018-May-16 10:30N 53°21' W 006°13'0 0.3
2018-May-16 09:57N 53°21' W 006°13'2 4.6
2018-May-16 09:26N 53°21' W 006°08'2 4.0
2018-May-16 08:55N 53°20' W 006°05'6 9.3
2018-May-16 08:14N 53°23' W 005°55'812.9
2018-May-16 07:36N 53°21' W 005°42'2314.7
2018-May-16 06:01N 52°58' W 005°34'117.0
2018-May-16 05:59N 52°58' W 005°34'816.5
2018-May-16 05:30N 52°50' W 005°37'  
Track history (hours):
 
Tides and Currents Weather Stations Pressure Air Temp Water Temp Dewpoint Dewpoint Depression Visibility Wind Speed Wind Dir Waves Ship Positions

Royal Princess

Last reported at 2018-May-26 03:11 UTC. Time now 2018-May-26 13:50 UTC.
Position N 49°29' W 002°52'.

Length 330 m; draft 8.5 m.

Type: Passenger vessel. MMSI: 310661000.

Date/timePositionNaut miles runAvg speedWind from/ knotsBaromVisibWave heightAir tempDewpointWater temp
2018-May-26 03:11N 49°29' W 002°52'414.5
2018-May-26 02:56N 49°33' W 002°52'614.6
2018-May-26 02:31N 49°39' W 002°53'714.9
2018-May-26 02:01N 49°46' W 002°55'815.1
2018-May-26 01:31N 49°54' W 002°57'612.1
2018-May-26 00:59N 49°58' W 002°51'714.0
2018-May-26 00:30N 50°00' W 002°41'814.3
2018-May-25 23:57N 50°02' W 002°29'714.7
2018-May-25 23:30N 50°05' W 002°20'815.1
2018-May-25 23:00N 50°09' W 002°09'815.1
2018-May-25 22:30N 50°12' W 001°59'715.0
2018-May-25 22:00N 50°16' W 001°49'714.7
2018-May-25 21:30N 50°20' W 001°39'714.6
2018-May-25 21:00N 50°23' W 001°29'714.8
2018-May-25 20:30N 50°27' W 001°19'715.0
2018-May-25 20:01N 50°31' W 001°09'815.8
2018-May-25 19:31N 50°36' W 000°59'713.4
2018-May-25 19:00N 50°43' W 000°59'612.6
2018-May-25 18:30N 50°45' W 001°08'714.2
2018-May-25 18:00N 50°47' W 001°19'4 8.2
2018-May-25 17:31N 50°51' W 001°21'3 5.9
2018-May-25 17:00N 50°53' W 001°24'0 0.0
2018-May-25 16:30N 50°53' W 001°24'0 0.0
2018-May-25 16:00N 50°53' W 001°24'0 0.0
2018-May-25 15:30N 50°53' W 001°24'0 0.0
2018-May-25 15:00N 50°53' W 001°24'0 0.0
2018-May-25 14:30N 50°53' W 001°24'0 0.0
2018-May-25 14:00N 50°53' W 001°24'0 0.0
2018-May-25 13:30N 50°53' W 001°24'0 0.0
2018-May-25 13:00N 50°53' W 001°24'0 0.0
2018-May-25 12:30N 50°53' W 001°24'0 0.0
2018-May-25 12:00N 50°53' W 001°24'0 0.0
2018-May-25 11:30N 50°53' W 001°24'0 0.0
2018-May-25 11:00N 50°53' W 001°24'0 0.0
2018-May-25 10:30N 50°53' W 001°24'0 0.0
2018-May-25 09:57N 50°53' W 001°24'0 0.0
2018-May-25 09:30N 50°53' W 001°24'0 0.0
2018-May-25 09:00N 50°53' W 001°24'0 0.0
2018-May-25 08:29N 50°53' W 001°24'0 0.0
2018-May-25 07:59N 50°53' W 001°24'0 0.0
2018-May-25 07:29N 50°53' W 001°24'0 0.0
2018-May-25 06:59N 50°53' W 001°24'0 0.0
2018-May-25 06:29N 50°53' W 001°24'0 0.0
2018-May-25 05:59N 50°53' W 001°24'0 0.0
2018-May-25 05:29N 50°53' W 001°24'0 0.0
2018-May-25 04:59N 50°53' W 001°24'0 0.0
2018-May-25 04:29N 50°53' W 001°24'0 0.0
2018-May-25 03:59N 50°53' W 001°24'0 0.4
2018-May-25 03:30N 50°53' W 001°24'4 7.3
2018-May-25 03:00N 50°51' W 001°20'4 8.6
2018-May-25 02:30N 50°47' W 001°19'713.7
2018-May-25 02:00N 50°45' W 001°08'714.4
2018-May-25 01:31N 50°42' W 000°58'5 9.1
2018-May-25 01:01N 50°38' W 000°58'613.0
2018-May-25 00:31N 50°31' W 000°57'713.4
2018-May-25 00:00N 50°25' W 000°54'813.3
2018-May-24 23:25N 50°17' W 000°50'613.4
2018-May-24 23:00N 50°12' W 000°48'713.5
2018-May-24 22:31N 50°05' W 000°46'713.4
2018-May-24 22:01N 49°59' W 000°43'713.4
2018-May-24 21:31N 49°53' W 000°39'713.7
2018-May-24 21:01N 49°47' W 000°32'713.7
2018-May-24 20:31N 49°42' W 000°26'713.4
2018-May-24 20:00N 49°36' W 000°20'713.5
2018-May-24 19:30N 49°33' W 000°11'612.4
2018-May-24 19:00N 49°31' W 000°02'5 9.6
2018-May-24 18:30N 49°29' E 000°05'1 2.5
2018-May-24 18:00N 49°29' E 000°07'0 0.0
2018-May-24 17:30N 49°29' E 000°07'0 0.0
2018-May-24 17:00N 49°29' E 000°07'0 0.0
2018-May-24 16:30N 49°29' E 000°07'0 0.0
2018-May-24 16:00N 49°29' E 000°07'0 0.0
2018-May-24 15:30N 49°29' E 000°07'0 0.0
2018-May-24 14:59N 49°29' E 000°07'0 0.0
2018-May-24 14:29N 49°29' E 000°07'0 0.0
2018-May-24 13:59N 49°29' E 000°07'0 0.0
2018-May-24 13:29N 49°29' E 000°07'0 0.0
2018-May-24 08:59N 49°29' E 000°07'0 0.0
2018-May-24 08:29N 49°29' E 000°07'0 0.0
2018-May-24 07:58N 49°29' E 000°07'0 0.0
2018-May-24 07:30N 49°29' E 000°07'0 0.0
2018-May-24 06:59N 49°29' E 000°07'0 0.0
2018-May-24 06:29N 49°29' E 000°07'0 0.0
2018-May-24 05:58N 49°29' E 000°07'0 0.0
2018-May-24 05:28N 49°29' E 000°07'0 0.0
2018-May-24 04:58N 49°29' E 000°07'0 0.6
2018-May-24 04:30N 49°29' E 000°06'4 8.3
2018-May-24 04:01N 49°30' E 000°00'611.2
2018-May-24 03:30N 49°32' W 000°08'510.2
2018-May-24 03:00N 49°34' W 000°15'611.9
2018-May-24 02:30N 49°39' W 000°20'815.2
2018-May-24 02:00N 49°46' W 000°24'815.9
2018-May-24 01:30N 49°53' W 000°18'917.5
2018-May-24 01:00N 50°01' W 000°12'917.4
2018-May-24 00:30N 50°09' W 000°07'917.6
2018-May-24 00:00N 50°18' W 000°07'914.4
2018-May-23 23:22N 50°27' W 000°06'616.1
2018-May-23 23:00N 50°29' E 000°03'916.4
2018-May-23 22:28N 50°31' E 000°16'816.3
2018-May-23 21:59N 50°33' E 000°29'3616.2
2018-May-23 19:44N 50°53' E 001°16'415.6
2018-May-23 19:30N 50°56' E 001°20'815.9
2018-May-23 19:01N 51°02' E 001°29'816.1
2018-May-23 18:30N 51°08' E 001°38'816.4
2018-May-23 18:00N 51°14' E 001°46'917.1
2018-May-23 17:31N 51°21' E 001°52'917.7
2018-May-23 17:00N 51°28' E 002°00'917.7
2018-May-23 16:30N 51°36' E 002°08'1019.1
2018-May-23 16:00N 51°45' E 002°11'1019.2
2018-May-23 15:28N 51°56' E 002°13'1319.3
2018-May-23 14:47N 52°09' E 002°16'2219.0
2018-May-23 13:38N 52°30' E 002°21'218.5
2018-May-23 13:30N 52°33' E 002°22'918.2
2018-May-23 13:00N 52°42' E 002°24'917.6
2018-May-23 12:31N 52°50' E 002°26'917.2
2018-May-23 12:00N 52°59' E 002°28'816.1
2018-May-23 11:30N 53°06' E 002°22'816.8
2018-May-23 11:00N 53°12' E 002°13'17316.7
2018-May-23 00:39N 55°29' W 000°47'316.9
2018-May-23 00:30N 55°31' W 000°50'817.0
2018-May-23 00:00N 55°37' W 001°00'917.3
2018-May-22 23:31N 55°44' W 001°11'917.5
2018-May-22 23:00N 55°50' W 001°22'917.6
2018-May-22 22:30N 55°55' W 001°35'917.4
2018-May-22 22:01N 55°58' W 001°49'917.2
2018-May-22 21:30N 56°03' W 002°02'1116.9
2018-May-22 20:52N 56°06' W 002°21'616.6
2018-May-22 20:30N 56°07' W 002°32'816.2
2018-May-22 20:00N 56°06' W 002°46'815.6
2018-May-22 19:30N 56°04' W 002°59'611.2
2018-May-22 19:00N 56°03' W 003°09'713.7
2018-May-22 18:30N 56°01' W 003°21'1 1.7
2018-May-22 17:50N 56°00' W 003°23'0 0.0
2018-May-22 17:14N 56°00' W 003°23'0 0.0
2018-May-22 16:41N 56°00' W 003°23'0 0.1
2018-May-22 16:29N 56°00' W 003°23'0 0.0
2018-May-22 15:32N 56°00' W 003°23'0 0.8
2018-May-22 15:29N 56°00' W 003°23'0 0.0
2018-May-22 14:14N 56°00' W 003°23'0 0.2
2018-May-22 13:56N 56°00' W 003°23'0 0.1
2018-May-22 13:23N 56°00' W 003°23'0 0.0
2018-May-22 12:38N 56°00' W 003°23'0 0.0
2018-May-22 12:30N 56°00' W 003°23'0 0.0
2018-May-22 12:00N 56°00' W 003°23'0 0.1
2018-May-22 11:12N 56°00' W 003°22'0 0.1
2018-May-22 11:00N 56°00' W 003°22'0 0.1
2018-May-22 10:27N 56°00' W 003°23'0 0.2
2018-May-22 10:00N 56°00' W 003°23'0 0.1
2018-May-22 09:30N 56°00' W 003°23'0 0.0
2018-May-22 09:00N 56°00' W 003°23'0 0.0
2018-May-22 08:29N 56°00' W 003°23'0 0.1
2018-May-22 08:00N 56°00' W 003°23'0 0.0
2018-May-22 07:30N 56°00' W 003°23'0 0.0
2018-May-22 07:00N 56°00' W 003°23'0 0.1
2018-May-22 06:29N 56°00' W 003°23'0 0.3
2018-May-22 05:59N 56°00' W 003°23'2 3.7
2018-May-22 05:26N 56°01' W 003°19'511.2
2018-May-22 04:58N 56°03' W 003°10'613.3
2018-May-22 04:31N 56°04' W 002°60'510.6
2018-May-22 04:00N 56°06' W 002°50'713.2
2018-May-22 03:31N 56°08' W 002°39'714.4
2018-May-22 03:00N 56°11' W 002°28'816.5
2018-May-22 02:30N 56°18' W 002°20'917.1
2018-May-22 02:00N 56°25' W 002°12'3317.8
2018-May-22 00:08N 56°56' W 001°47'319.6
2018-May-22 00:00N 56°58' W 001°46'1019.4
2018-May-21 23:30N 57°08' W 001°43'1019.3
2018-May-21 23:00N 57°17' W 001°40'1019.2
2018-May-21 22:30N 57°27' W 001°37'919.4
2018-May-21 22:00N 57°36' W 001°39'56 2.5
2018-May-20 23:12N 58°23' W 002°38'412.6
2018-May-20 22:54N 58°27' W 002°41'512.6
2018-May-20 22:30N 58°31' W 002°45'612.8
2018-May-20 22:00N 58°37' W 002°51'612.9
2018-May-20 21:30N 58°41' W 003°00'611.8
2018-May-20 21:00N 58°43' W 003°11'713.4
2018-May-20 20:30N 58°43' W 003°24'912.4
2018-May-20 19:47N 58°43' W 003°41'412.8
2018-May-20 19:30N 58°43' W 003°48'19911.8
2018-May-20 02:42N 55°58' W 007°16'316.0
2018-May-20 02:31N 55°56' W 007°13'815.5
2018-May-20 02:00N 55°49' W 007°05'815.2
2018-May-20 01:31N 55°43' W 006°58'713.9
2018-May-20 01:00N 55°38' W 006°49'713.5
2018-May-20 00:30N 55°34' W 006°39'713.2
2018-May-20 00:00N 55°31' W 006°29'713.9
2018-May-19 23:31N 55°27' W 006°19'713.9
2018-May-19 23:01N 55°25' W 006°07'713.0
2018-May-19 22:27N 55°21' W 005°57'613.0
2018-May-19 22:00N 55°16' W 005°51'1713.8
2018-May-19 20:47N 55°17' W 005°22'515.7
2018-May-19 20:28N 55°20' W 005°14'2413.9
2018-May-19 18:45N 55°42' W 004°59'2 9.1
2018-May-19 18:30N 55°44' W 004°59'815.8
2018-May-19 18:00N 55°52' W 004°57'713.6
2018-May-19 17:30N 55°58' W 004°51'3 6.5
2018-May-19 17:00N 55°57' W 004°46'0 0.0
2018-May-19 16:29N 55°57' W 004°46'0 0.0
2018-May-19 15:59N 55°57' W 004°46'0 0.0
2018-May-19 15:29N 55°57' W 004°46'0 0.0
2018-May-19 14:59N 55°57' W 004°46'0 0.0
2018-May-19 14:29N 55°57' W 004°46'0 0.0
2018-May-19 13:59N 55°57' W 004°46'0 0.0
2018-May-19 13:29N 55°57' W 004°46'0 0.0
2018-May-19 12:59N 55°57' W 004°46'0 0.0
2018-May-19 12:29N 55°57' W 004°46'0 0.0
2018-May-19 11:59N 55°57' W 004°46'0 0.0
2018-May-19 11:29N 55°57' W 004°46'0 0.0
2018-May-19 10:59N 55°57' W 004°46'0 0.0
2018-May-19 10:29N 55°57' W 004°46'0 0.0
2018-May-19 09:59N 55°57' W 004°46'0 0.0
2018-May-19 09:29N 55°57' W 004°46'0 0.0
2018-May-19 08:59N 55°57' W 004°46'0 0.0
2018-May-19 08:29N 55°57' W 004°46'0 0.0
2018-May-19 07:59N 55°57' W 004°46'0 0.0
2018-May-19 07:29N 55°57' W 004°46'0 0.0
2018-May-19 06:59N 55°57' W 004°46'0 0.0
2018-May-19 06:29N 55°57' W 004°46'0 0.0
2018-May-19 05:59N 55°57' W 004°46'0 0.5
2018-May-19 05:30N 55°58' W 004°46'5 8.9
2018-May-19 04:56N 55°56' W 004°54'2013.9
2018-May-19 03:30N 55°36' W 004°59'613.1
2018-May-19 03:00N 55°30' W 004°59'612.4
2018-May-19 02:30N 55°24' W 005°02'713.2
2018-May-19 02:00N 55°19' W 005°11'713.3
2018-May-19 01:30N 55°15' W 005°19'713.4
2018-May-19 01:00N 55°10' W 005°28'612.4
2018-May-19 00:30N 55°06' W 005°36'4 8.4
2018-May-19 00:00N 55°02' W 005°36'5 9.6
2018-May-18 23:30N 54°58' W 005°31'5 9.8
2018-May-18 23:00N 54°56' W 005°23'4 8.1
2018-May-18 22:30N 54°52' W 005°20'611.4
2018-May-18 22:01N 54°49' W 005°29'510.8
2018-May-18 21:30N 54°45' W 005°35'510.5
2018-May-18 21:00N 54°43' W 005°43'5 9.8
2018-May-18 20:29N 54°40' W 005°50'3 6.8
2018-May-18 19:59N 54°37' W 005°54'0 0.2
2018-May-18 19:28N 54°37' W 005°54'0 0.0
2018-May-18 18:52N 54°37' W 005°54'0 0.0
2018-May-18 18:28N 54°37' W 005°54'0 0.0
2018-May-18 17:58N 54°37' W 005°54'0 0.0
2018-May-18 17:28N 54°37' W 005°54'0 0.0
2018-May-18 16:58N 54°37' W 005°54'0 0.0
2018-May-18 16:28N 54°37' W 005°54'0 0.0
2018-May-18 15:58N 54°37' W 005°54'0 0.0
2018-May-18 15:28N 54°37' W 005°54'0 0.0
2018-May-18 14:58N 54°37' W 005°54'0 0.0
2018-May-18 14:28N 54°37' W 005°54'0 0.0
2018-May-18 13:58N 54°37' W 005°54'0 0.0
2018-May-18 13:28N 54°37' W 005°54'0 0.0
2018-May-18 12:49N 54°37' W 005°54'0 0.0
2018-May-18 12:28N 54°37' W 005°54'0 0.0
2018-May-18 11:58N 54°37' W 005°54'0 0.0
2018-May-18 11:28N 54°37' W 005°54'0 0.0
2018-May-18 10:58N 54°37' W 005°54'0 0.0
2018-May-18 10:30N 54°37' W 005°54'0 0.0
2018-May-18 09:58N 54°37' W 005°54'0 0.0
2018-May-18 09:25N 54°37' W 005°54'0 0.7
2018-May-18 08:58N 54°37' W 005°54'1 1.6
2018-May-18 08:30N 54°38' W 005°53'4 7.7
2018-May-18 08:00N 54°41' W 005°49'3 6.4
2018-May-18 07:31N 54°42' W 005°44'510.5
2018-May-18 07:00N 54°45' W 005°36'612.7
2018-May-18 06:30N 54°47' W 005°25'612.6
2018-May-18 06:00N 54°42' W 005°17'612.8
2018-May-18 05:30N 54°37' W 005°11'713.3
2018-May-18 04:59N 54°31' W 005°04'612.9
2018-May-18 04:30N 54°26' W 004°59'612.6
2018-May-18 04:00N 54°20' W 005°02'713.2
2018-May-18 03:30N 54°14' W 005°07'713.4
2018-May-18 02:58N 54°08' W 005°13'613.1
2018-May-18 02:30N 54°02' W 005°17'713.6
2018-May-18 01:59N 53°55' W 005°17'713.5
2018-May-18 01:30N 53°48' W 005°16'1012.7
2018-May-18 00:41N 53°38' W 005°18'212.7
2018-May-18 00:30N 53°37' W 005°21'613.0
2018-May-18 00:00N 53°33' W 005°30'713.4
2018-May-17 23:29N 53°29' W 005°40'613.0
2018-May-17 23:00N 53°26' W 005°48'713.7
2018-May-17 22:30N 53°22' W 005°58'510.6
2018-May-17 22:00N 53°20' W 006°06'4 7.4
2018-May-17 21:30N 53°21' W 006°13'0 0.1
2018-May-17 20:53N 53°21' W 006°13'0 0.0
2018-May-17 19:48N 53°21' W 006°13'0 0.0
2018-May-17 15:43N 53°21' W 006°13'0 0.0
2018-May-17 15:10N 53°21' W 006°13'0 0.0
2018-May-17 14:57N 53°21' W 006°13'0 0.0
2018-May-17 10:42N 53°21' W 006°13'0 0.0
2018-May-17 10:15N 53°21' W 006°13'0 0.0
2018-May-17 09:06N 53°21' W 006°13'0 0.0
2018-May-17 07:53N 53°21' W 006°13'0 0.0
2018-May-17 07:28N 53°21' W 006°13'0 0.0
2018-May-17 02:34N 53°21' W 006°13'0 0.0
2018-May-17 00:00N 53°21' W 006°13'0 0.0
2018-May-16 22:48N 53°21' W 006°13'0 0.0
2018-May-16 21:35N 53°21' W 006°13'0 0.0
2018-May-16 20:34N 53°21' W 006°13'0 0.0
2018-May-16 20:08N 53°21' W 006°13'0 0.0
2018-May-16 20:00N 53°21' W 006°13'0 0.0
2018-May-16 18:34N 53°21' W 006°13'0 0.0
2018-May-16 17:38N 53°21' W 006°13'0 0.0
2018-May-16 17:27N 53°21' W 006°13'0 0.0
2018-May-16 16:51N 53°21' W 006°13'0 0.0
2018-May-16 16:28N 53°21' W 006°13'0 0.0
2018-May-16 15:45N 53°21' W 006°13'0 0.0
2018-May-16 15:25N 53°21' W 006°13'0 0.0
2018-May-16 14:06N 53°21' W 006°13'0 0.0
2018-May-16 13:46N 53°21' W 006°13'0 0.0
2018-May-16 12:30N 53°21' W 006°13'0 0.0
2018-May-16 11:26N 53°21' W 006°13'0 0.0
2018-May-16 11:00N 53°21' W 006°13'0 0.0
2018-May-16 10:30N 53°21' W 006°13'0 0.3
2018-May-16 09:57N 53°21' W 006°13'2 4.6
2018-May-16 09:26N 53°21' W 006°08'2 4.0
2018-May-16 08:55N 53°20' W 006°05'6 9.3
2018-May-16 08:14N 53°23' W 005°55'812.9
2018-May-16 07:36N 53°21' W 005°42'2314.7
2018-May-16 06:01N 52°58' W 005°34'117.0
2018-May-16 05:59N 52°58' W 005°34'816.5
2018-May-16 05:30N 52°50' W 005°37'  

Dump ship's entire track history